sensor_id;sensor_type;location;lat;lon;timestamp;pressure;altitude;pressure_sealevel;temperature;humidity
46583;BME280;32309;48.858;8.252;2023-12-14T00:00:59;99316.03;;;7.18;100.00
46583;BME280;32309;48.858;8.252;2023-12-14T00:03:02;99320.47;;;7.15;100.00
46583;BME280;32309;48.858;8.252;2023-12-14T00:05:02;99323.88;;;7.16;100.00
46583;BME280;32309;48.858;8.252;2023-12-14T00:07:03;99318.00;;;7.14;100.00
46583;BME280;32309;48.858;8.252;2023-12-14T00:09:03;99325.78;;;7.12;100.00
46583;BME280;32309;48.858;8.252;2023-12-14T00:11:05;99325.06;;;7.10;100.00
46583;BME280;32309;48.858;8.252;2023-12-14T00:13:06;99325.88;;;7.11;100.00
46583;BME280;32309;48.858;8.252;2023-12-14T00:15:07;99328.34;;;7.12;100.00
46583;BME280;32309;48.858;8.252;2023-12-14T00:17:08;99337.94;;;7.10;100.00
46583;BME280;32309;48.858;8.252;2023-12-14T00:19:09;99342.19;;;7.11;100.00
46583;BME280;32309;48.858;8.252;2023-12-14T00:21:09;99339.66;;;7.10;100.00
46583;BME280;32309;48.858;8.252;2023-12-14T00:23:09;99342.34;;;7.08;100.00
46583;BME280;32309;48.858;8.252;2023-12-14T00:25:09;99346.78;;;7.06;100.00
46583;BME280;32309;48.858;8.252;2023-12-14T00:27:10;99354.41;;;7.08;100.00
46583;BME280;32309;48.858;8.252;2023-12-14T00:29:10;99351.94;;;7.06;100.00
46583;BME280;32309;48.858;8.252;2023-12-14T00:31:10;99359.56;;;7.08;100.00
46583;BME280;32309;48.858;8.252;2023-12-14T00:33:10;99356.97;;;7.08;100.00
46583;BME280;32309;48.858;8.252;2023-12-14T00:35:11;99357.72;;;7.10;100.00
46583;BME280;32309;48.858;8.252;2023-12-14T00:37:11;99363.81;;;7.09;100.00
46583;BME280;32309;48.858;8.252;2023-12-14T00:39:11;99361.03;;;7.12;100.00
46583;BME280;32309;48.858;8.252;2023-12-14T00:41:11;99359.28;;;7.12;100.00
46583;BME280;32309;48.858;8.252;2023-12-14T00:43:12;99367.00;;;7.12;100.00
46583;BME280;32309;48.858;8.252;2023-12-14T00:45:12;99365.28;;;7.13;100.00
46583;BME280;32309;48.858;8.252;2023-12-14T00:47:13;99365.38;;;7.11;100.00
46583;BME280;32309;48.858;8.252;2023-12-14T00:49:13;99370.34;;;7.14;100.00
46583;BME280;32309;48.858;8.252;2023-12-14T00:51:13;99372.91;;;7.14;100.00
46583;BME280;32309;48.858;8.252;2023-12-14T00:53:13;99378.06;;;7.14;100.00
46583;BME280;32309;48.858;8.252;2023-12-14T00:55:14;99381.47;;;7.15;100.00
46583;BME280;32309;48.858;8.252;2023-12-14T00:57:14;99384.03;;;7.15;100.00
46583;BME280;32309;48.858;8.252;2023-12-14T00:59:17;99389.09;;;7.16;100.00
46583;BME280;32309;48.858;8.252;2023-12-14T01:01:17;99387.47;;;7.15;100.00
46583;BME280;32309;48.858;8.252;2023-12-14T01:03:18;99387.56;;;7.14;100.00
46583;BME280;32309;48.858;8.252;2023-12-14T01:05:19;99392.72;;;7.14;100.00
46583;BME280;32309;48.858;8.252;2023-12-14T01:07:20;99402.19;;;7.13;100.00
46583;BME280;32309;48.858;8.252;2023-12-14T01:09:20;99403.84;;;7.14;100.00
46583;BME280;32309;48.858;8.252;2023-12-14T01:11:20;99410.66;;;7.15;100.00
46583;BME280;32309;48.858;8.252;2023-12-14T01:13:20;99411.47;;;7.16;100.00
46583;BME280;32309;48.858;8.252;2023-12-14T01:15:21;99414.16;;;7.14;100.00
46583;BME280;32309;48.858;8.252;2023-12-14T01:17:21;99417.44;;;7.16;100.00
46583;BME280;32309;48.858;8.252;2023-12-14T01:19:21;99420.97;;;7.15;100.00
46583;BME280;32309;48.858;8.252;2023-12-14T01:21:21;99426.03;;;7.17;100.00
46583;BME280;32309;48.858;8.252;2023-12-14T01:23:22;99430.34;;;7.16;100.00
46583;BME280;32309;48.858;8.252;2023-12-14T01:25:22;99430.44;;;7.15;100.00
46583;BME280;32309;48.858;8.252;2023-12-14T01:27:25;99427.94;;;7.13;100.00
46583;BME280;32309;48.858;8.252;2023-12-14T01:29:25;99437.53;;;7.11;100.00
46583;BME280;32309;48.858;8.252;2023-12-14T01:31:26;99444.31;;;7.12;100.00
46583;BME280;32309;48.858;8.252;2023-12-14T01:33:26;99438.34;;;7.12;100.00
46583;BME280;32309;48.858;8.252;2023-12-14T01:35:26;99448.56;;;7.13;100.00
46583;BME280;32309;48.858;8.252;2023-12-14T01:37:28;99450.41;;;7.11;100.00
46583;BME280;32309;48.858;8.252;2023-12-14T01:39:28;99453.72;;;7.13;100.00
46583;BME280;32309;48.858;8.252;2023-12-14T01:41:29;99462.28;;;7.14;100.00
46583;BME280;32309;48.858;8.252;2023-12-14T01:43:29;99459.88;;;7.11;100.00
46583;BME280;32309;48.858;8.252;2023-12-14T01:45:30;99464.13;;;7.12;100.00
46583;BME280;32309;48.858;8.252;2023-12-14T01:47:30;99465.78;;;7.13;100.00
46583;BME280;32309;48.858;8.252;2023-12-14T01:49:30;99473.59;;;7.11;100.00
46583;BME280;32309;48.858;8.252;2023-12-14T01:51:30;99476.25;;;7.10;100.00
46583;BME280;32309;48.858;8.252;2023-12-14T01:53:30;99476.19;;;7.11;100.00
46583;BME280;32309;48.858;8.252;2023-12-14T01:55:31;99480.47;;;7.11;100.00
46583;BME280;32309;48.858;8.252;2023-12-14T01:57:31;99485.63;;;7.11;100.00
46583;BME280;32309;48.858;8.252;2023-12-14T01:59:31;99482.25;;;7.10;100.00
46583;BME280;32309;48.858;8.252;2023-12-14T02:01:39;99483.97;;;7.10;100.00
46583;BME280;32309;48.858;8.252;2023-12-14T02:03:45;99493.38;;;7.11;100.00
46583;BME280;32309;48.858;8.252;2023-12-14T02:05:48;99486.41;;;7.13;100.00
46583;BME280;32309;48.858;8.252;2023-12-14T02:07:48;99489.78;;;7.13;100.00
46583;BME280;32309;48.858;8.252;2023-12-14T02:09:49;99493.28;;;7.12;100.00
46583;BME280;32309;48.858;8.252;2023-12-14T02:11:52;99495.13;;;7.10;100.00
46583;BME280;32309;48.858;8.252;2023-12-14T02:13:53;99491.66;;;7.11;100.00
46583;BME280;32309;48.858;8.252;2023-12-14T02:15:53;99497.69;;;7.10;100.00
46583;BME280;32309;48.858;8.252;2023-12-14T02:17:53;99501.19;;;7.09;100.00
46583;BME280;32309;48.858;8.252;2023-12-14T02:19:54;99504.75;;;7.07;100.00
46583;BME280;32309;48.858;8.252;2023-12-14T02:21:54;99504.75;;;7.07;100.00
46583;BME280;32309;48.858;8.252;2023-12-14T02:23:54;99506.53;;;7.06;100.00
46583;BME280;32309;48.858;8.252;2023-12-14T02:25:55;99505.03;;;7.02;100.00
46583;BME280;32309;48.858;8.252;2023-12-14T02:27:55;99504.09;;;7.03;100.00
46583;BME280;32309;48.858;8.252;2023-12-14T02:29:56;99505.84;;;7.03;100.00
46583;BME280;32309;48.858;8.252;2023-12-14T02:31:56;99505.03;;;7.02;100.00
46583;BME280;32309;48.858;8.252;2023-12-14T02:33:56;99509.25;;;7.03;100.00
46583;BME280;32309;48.858;8.252;2023-12-14T02:35:57;99507.66;;;7.00;100.00
46583;BME280;32309;48.858;8.252;2023-12-14T02:37:57;99517.91;;;7.02;100.00
46583;BME280;32309;48.858;8.252;2023-12-14T02:39:58;99516.97;;;7.03;100.00
46583;BME280;32309;48.858;8.252;2023-12-14T02:41:58;99515.34;;;7.02;100.00
46583;BME280;32309;48.858;8.252;2023-12-14T02:43:58;99523.13;;;7.00;100.00
46583;BME280;32309;48.858;8.252;2023-12-14T02:45:58;99518.81;;;7.01;100.00
46583;BME280;32309;48.858;8.252;2023-12-14T02:48:02;99531.72;;;7.01;100.00
46583;BME280;32309;48.858;8.252;2023-12-14T02:50:02;99539.59;;;6.98;100.00
46583;BME280;32309;48.858;8.252;2023-12-14T02:52:03;99534.38;;;6.99;100.00
46583;BME280;32309;48.858;8.252;2023-12-14T02:54:03;99538.53;;;7.02;100.00
46583;BME280;32309;48.858;8.252;2023-12-14T02:56:03;99541.09;;;7.02;100.00
46583;BME280;32309;48.858;8.252;2023-12-14T02:58:04;99537.69;;;7.02;100.00
46583;BME280;32309;48.858;8.252;2023-12-14T03:00:04;99542.00;;;7.01;100.00
46583;BME280;32309;48.858;8.252;2023-12-14T03:02:05;99541.94;;;7.03;100.00
46583;BME280;32309;48.858;8.252;2023-12-14T03:04:06;99549.56;;;7.04;100.00
46583;BME280;32309;48.858;8.252;2023-12-14T03:06:07;99553.81;;;7.05;100.00
46583;BME280;32309;48.858;8.252;2023-12-14T03:08:07;99554.63;;;7.06;100.00
46583;BME280;32309;48.858;8.252;2023-12-14T03:10:10;99552.91;;;7.06;100.00
46583;BME280;32309;48.858;8.252;2023-12-14T03:12:10;99560.63;;;7.06;100.00
46583;BME280;32309;48.858;8.252;2023-12-14T03:14:11;99562.38;;;7.06;100.00
46583;BME280;32309;48.858;8.252;2023-12-14T03:16:11;99554.81;;;7.03;100.00
46583;BME280;32309;48.858;8.252;2023-12-14T03:18:12;99558.97;;;7.05;100.00
46583;BME280;32309;48.858;8.252;2023-12-14T03:20:12;99562.44;;;7.04;100.00
46583;BME280;32309;48.858;8.252;2023-12-14T03:22:14;99565.84;;;7.05;100.00
46583;BME280;32309;48.858;8.252;2023-12-14T03:24:14;99578.72;;;7.05;100.00
46583;BME280;32309;48.858;8.252;2023-12-14T03:26:14;99572.75;;;7.04;100.00
46583;BME280;32309;48.858;8.252;2023-12-14T03:28:14;99569.28;;;7.05;100.00
46583;BME280;32309;48.858;8.252;2023-12-14T03:30:15;99576.09;;;7.06;100.00
46583;BME280;32309;48.858;8.252;2023-12-14T03:32:15;99575.16;;;7.07;100.00
46583;BME280;32309;48.858;8.252;2023-12-14T03:34:16;99584.66;;;7.07;100.00
46583;BME280;32309;48.858;8.252;2023-12-14T03:36:17;99589.72;;;7.08;100.00
46583;BME280;32309;48.858;8.252;2023-12-14T03:38:17;99584.66;;;7.07;100.00
46583;BME280;32309;48.858;8.252;2023-12-14T03:40:17;99597.53;;;7.07;100.00
46583;BME280;32309;48.858;8.252;2023-12-14T03:42:21;99594.13;;;7.06;100.00
46583;BME280;32309;48.858;8.252;2023-12-14T03:44:21;99594.13;;;7.06;100.00
46583;BME280;32309;48.858;8.252;2023-12-14T03:46:24;99602.69;;;7.07;100.00
46583;BME280;32309;48.858;8.252;2023-12-14T03:48:26;99605.34;;;7.05;100.00
46583;BME280;32309;48.858;8.252;2023-12-14T03:50:26;99607.00;;;7.06;100.00
46583;BME280;32309;48.858;8.252;2023-12-14T03:52:28;99618.13;;;7.07;100.00
46583;BME280;32309;48.858;8.252;2023-12-14T03:54:31;99618.13;;;7.07;100.00
46583;BME280;32309;48.858;8.252;2023-12-14T03:56:31;99619.97;;;7.05;100.00
46583;BME280;32309;48.858;8.252;2023-12-14T03:58:31;99629.34;;;7.06;100.00
46583;BME280;32309;48.858;8.252;2023-12-14T04:00:32;99625.97;;;7.05;100.00
46583;BME280;32309;48.858;8.252;2023-12-14T04:02:32;99635.41;;;7.05;100.00
46583;BME280;32309;48.858;8.252;2023-12-14T04:04:33;99638.00;;;7.05;100.00
46583;BME280;32309;48.858;8.252;2023-12-14T04:06:33;99639.75;;;7.04;100.00
46583;BME280;32309;48.858;8.252;2023-12-14T04:08:33;99642.31;;;7.04;100.00
46583;BME280;32309;48.858;8.252;2023-12-14T04:10:33;99649.25;;;7.04;100.00
46583;BME280;32309;48.858;8.252;2023-12-14T04:12:33;99654.38;;;7.04;100.00
46583;BME280;32309;48.858;8.252;2023-12-14T04:14:34;99657.78;;;7.04;100.00
46583;BME280;32309;48.858;8.252;2023-12-14T04:16:34;99667.19;;;7.05;100.00
46583;BME280;32309;48.858;8.252;2023-12-14T04:18:34;99665.50;;;7.04;100.00
46583;BME280;32309;48.858;8.252;2023-12-14T04:20:35;99672.44;;;7.04;100.00
46583;BME280;32309;48.858;8.252;2023-12-14T04:22:35;99668.19;;;7.03;100.00
46583;BME280;32309;48.858;8.252;2023-12-14T04:24:35;99676.00;;;7.01;100.00
46583;BME280;32309;48.858;8.252;2023-12-14T04:26:35;99673.50;;;6.99;100.00
46583;BME280;32309;48.858;8.252;2023-12-14T04:28:36;99680.28;;;7.00;100.00
46583;BME280;32309;48.858;8.252;2023-12-14T04:30:36;99688.78;;;7.03;100.00
46583;BME280;32309;48.858;8.252;2023-12-14T04:32:37;99679.31;;;7.03;100.00
46583;BME280;32309;48.858;8.252;2023-12-14T04:34:37;99681.78;;;7.05;100.00
46583;BME280;32309;48.858;8.252;2023-12-14T04:36:38;99686.03;;;7.06;100.00
46583;BME280;32309;48.858;8.252;2023-12-14T04:38:38;99687.72;;;7.07;100.00
46583;BME280;32309;48.858;8.252;2023-12-14T04:40:38;99696.25;;;7.07;100.00
46583;BME280;32309;48.858;8.252;2023-12-14T04:42:38;99696.25;;;7.07;100.00
46583;BME280;32309;48.858;8.252;2023-12-14T04:44:39;99701.38;;;7.09;100.00
46583;BME280;32309;48.858;8.252;2023-12-14T04:46:39;99704.75;;;7.09;100.00
46583;BME280;32309;48.858;8.252;2023-12-14T04:48:39;99704.75;;;7.09;100.00
46583;BME280;32309;48.858;8.252;2023-12-14T04:50:39;99720.13;;;7.11;100.00
46583;BME280;32309;48.858;8.252;2023-12-14T04:52:41;99718.41;;;7.11;100.00
46583;BME280;32309;48.858;8.252;2023-12-14T04:54:41;99722.63;;;7.12;100.00
46583;BME280;32309;48.858;8.252;2023-12-14T04:56:45;99716.66;;;7.12;100.00
46583;BME280;32309;48.858;8.252;2023-12-14T04:58:45;99726.16;;;7.11;100.00
46583;BME280;32309;48.858;8.252;2023-12-14T05:00:46;99726.78;;;7.15;100.00
46583;BME280;32309;48.858;8.252;2023-12-14T05:02:46;99729.38;;;7.15;100.00
46583;BME280;32309;48.858;8.252;2023-12-14T05:04:48;99729.47;;;7.13;100.00
46583;BME280;32309;48.858;8.252;2023-12-14T05:06:48;99730.38;;;7.12;100.00
46583;BME280;32309;48.858;8.252;2023-12-14T05:08:48;99737.28;;;7.12;100.00
46583;BME280;32309;48.858;8.252;2023-12-14T05:10:49;99745.00;;;7.12;100.00
46583;BME280;32309;48.858;8.252;2023-12-14T05:12:49;99748.41;;;7.12;100.00
46583;BME280;32309;48.858;8.252;2023-12-14T05:14:49;99757.88;;;7.12;100.00
46583;BME280;32309;48.858;8.252;2023-12-14T05:16:49;99749.34;;;7.11;100.00
46583;BME280;32309;48.858;8.252;2023-12-14T05:18:50;99769.97;;;7.11;100.00
46583;BME280;32309;48.858;8.252;2023-12-14T05:20:50;99766.63;;;7.09;100.00
46583;BME280;32309;48.858;8.252;2023-12-14T05:22:50;99768.28;;;7.10;100.00
46583;BME280;32309;48.858;8.252;2023-12-14T05:24:51;99775.09;;;7.11;100.00
46583;BME280;32309;48.858;8.252;2023-12-14T05:26:54;99775.16;;;7.10;100.00
46583;BME280;32309;48.858;8.252;2023-12-14T05:28:54;99776.00;;;7.10;100.00
46583;BME280;32309;48.858;8.252;2023-12-14T05:30:54;99776.00;;;7.10;100.00
46583;BME280;32309;48.858;8.252;2023-12-14T05:32:54;99783.75;;;7.10;100.00
46583;BME280;32309;48.858;8.252;2023-12-14T05:34:55;99791.41;;;7.12;100.00
46583;BME280;32309;48.858;8.252;2023-12-14T05:36:55;99796.63;;;7.10;100.00
46583;BME280;32309;48.858;8.252;2023-12-14T05:38:56;99796.53;;;7.12;100.00
46583;BME280;32309;48.858;8.252;2023-12-14T05:41:00;99799.94;;;7.12;100.00
46583;BME280;32309;48.858;8.252;2023-12-14T05:43:00;99807.63;;;7.14;100.00
46583;BME280;32309;48.858;8.252;2023-12-14T05:45:01;99804.19;;;7.13;100.00
46583;BME280;32309;48.858;8.252;2023-12-14T05:47:01;99807.63;;;7.14;100.00
46583;BME280;32309;48.858;8.252;2023-12-14T05:49:01;99811.94;;;7.13;100.00
46583;BME280;32309;48.858;8.252;2023-12-14T05:51:02;99811.03;;;7.14;100.00
46583;BME280;32309;48.858;8.252;2023-12-14T05:53:02;99819.75;;;7.12;100.00
46583;BME280;32309;48.858;8.252;2023-12-14T05:55:02;99823.13;;;7.12;100.00
46583;BME280;32309;48.858;8.252;2023-12-14T05:57:04;99824.13;;;7.10;100.00
46583;BME280;32309;48.858;8.252;2023-12-14T05:59:04;99832.63;;;7.12;100.00
46583;BME280;32309;48.858;8.252;2023-12-14T06:01:04;99832.63;;;7.12;100.00
46583;BME280;32309;48.858;8.252;2023-12-14T06:03:05;99843.03;;;7.10;100.00
46583;BME280;32309;48.858;8.252;2023-12-14T06:05:06;99844.69;;;7.11;100.00
46583;BME280;32309;48.858;8.252;2023-12-14T06:07:07;99852.34;;;7.13;100.00
46583;BME280;32309;48.858;8.252;2023-12-14T06:09:10;99852.34;;;7.13;100.00
46583;BME280;32309;48.858;8.252;2023-12-14T06:11:10;99853.16;;;7.13;100.00
46583;BME280;32309;48.858;8.252;2023-12-14T06:13:10;99858.41;;;7.12;100.00
46583;BME280;32309;48.858;8.252;2023-12-14T06:15:14;99850.66;;;7.12;100.00
46583;BME280;32309;48.858;8.252;2023-12-14T06:17:14;99862.72;;;7.11;100.00
46583;BME280;32309;48.858;8.252;2023-12-14T06:19:14;99863.56;;;7.12;100.00
46583;BME280;32309;48.858;8.252;2023-12-14T06:21:15;99866.94;;;7.12;100.00
46583;BME280;32309;48.858;8.252;2023-12-14T06:23:15;99870.38;;;7.13;100.00
46583;BME280;32309;48.858;8.252;2023-12-14T06:25:15;99882.41;;;7.12;100.00
46583;BME280;32309;48.858;8.252;2023-12-14T06:27:15;99885.00;;;7.12;100.00
46583;BME280;32309;48.858;8.252;2023-12-14T06:29:16;99883.28;;;7.13;100.00
46583;BME280;32309;48.858;8.252;2023-12-14T06:31:17;99895.25;;;7.14;100.00
46583;BME280;32309;48.858;8.252;2023-12-14T06:33:21;99898.66;;;7.14;100.00
46583;BME280;32309;48.858;8.252;2023-12-14T06:35:21;99899.56;;;7.13;100.00
46583;BME280;32309;48.858;8.252;2023-12-14T06:39:56;99902.13;;;7.13;100.00
46583;BME280;32309;48.858;8.252;2023-12-14T06:41:57;99906.53;;;7.11;100.00
46583;BME280;32309;48.858;8.252;2023-12-14T06:43:57;99915.09;;;7.12;100.00
46583;BME280;32309;48.858;8.252;2023-12-14T06:45:57;99914.28;;;7.11;100.00
46583;BME280;32309;48.858;8.252;2023-12-14T06:47:58;99917.75;;;7.10;100.00
46583;BME280;32309;48.858;8.252;2023-12-14T06:49:58;99922.91;;;7.10;100.00
46583;BME280;32309;48.858;8.252;2023-12-14T06:51:58;99928.16;;;7.09;100.00
46583;BME280;32309;48.858;8.252;2023-12-14T06:53:58;99938.44;;;7.09;100.00
46583;BME280;32309;48.858;8.252;2023-12-14T06:55:59;99935.19;;;7.05;100.00
46583;BME280;32309;48.858;8.252;2023-12-14T06:57:59;99942.06;;;7.05;100.00
46583;BME280;32309;48.858;8.252;2023-12-14T06:59:59;99953.13;;;7.07;100.00
46583;BME280;32309;48.858;8.252;2023-12-14T07:02:00;99952.38;;;7.05;100.00
46583;BME280;32309;48.858;8.252;2023-12-14T07:04:00;99955.78;;;7.05;100.00
46583;BME280;32309;48.858;8.252;2023-12-14T07:06:03;99965.25;;;7.05;100.00
46583;BME280;32309;48.858;8.252;2023-12-14T07:08:03;99966.25;;;7.02;100.00
46583;BME280;32309;48.858;8.252;2023-12-14T07:10:04;99974.72;;;7.04;100.00
46583;BME280;32309;48.858;8.252;2023-12-14T07:12:04;99980.78;;;7.03;100.00
46583;BME280;32309;48.858;8.252;2023-12-14T07:14:04;99987.69;;;7.03;100.00
46583;BME280;32309;48.858;8.252;2023-12-14T07:16:08;99985.19;;;7.01;100.00
46583;BME280;32309;48.858;8.252;2023-12-14T07:18:10;99989.56;;;6.99;100.00
46583;BME280;32309;48.858;8.252;2023-12-14T07:20:10;99996.41;;;7.00;100.00
46583;BME280;32309;48.858;8.252;2023-12-14T07:22:11;99993.00;;;6.99;100.00
46583;BME280;32309;48.858;8.252;2023-12-14T07:24:11;100002.47;;;6.99;100.00
46583;BME280;32309;48.858;8.252;2023-12-14T07:26:11;100006.78;;;6.98;100.00
46583;BME280;32309;48.858;8.252;2023-12-14T07:28:14;100000.78;;;6.98;100.00
46583;BME280;32309;48.858;8.252;2023-12-14T07:30:15;100008.47;;;6.99;100.00
46583;BME280;32309;48.858;8.252;2023-12-14T07:32:15;100015.34;;;6.99;100.00
46583;BME280;32309;48.858;8.252;2023-12-14T07:34:16;100021.34;;;6.99;100.00
46583;BME280;32309;48.858;8.252;2023-12-14T07:36:16;100016.19;;;6.99;100.00
46583;BME280;32309;48.858;8.252;2023-12-14T07:38:22;100029.81;;;7.02;100.00
46583;BME280;32309;48.858;8.252;2023-12-14T07:40:23;100030.69;;;7.02;100.00
46583;BME280;32309;48.858;8.252;2023-12-14T07:42:23;100034.09;;;7.03;100.00
46583;BME280;32309;48.858;8.252;2023-12-14T07:44:24;100041.88;;;7.01;100.00
46583;BME280;32309;48.858;8.252;2023-12-14T07:46:25;100043.56;;;7.02;100.00
46583;BME280;32309;48.858;8.252;2023-12-14T07:48:25;100043.56;;;7.02;100.00
46583;BME280;32309;48.858;8.252;2023-12-14T07:50:26;100050.28;;;7.05;100.00
46583;BME280;32309;48.858;8.252;2023-12-14T07:52:26;100049.38;;;7.06;100.00
46583;BME280;32309;48.858;8.252;2023-12-14T07:54:27;100048.50;;;7.07;100.00
46583;BME280;32309;48.858;8.252;2023-12-14T07:56:33;100051.16;;;7.05;100.00
46583;BME280;32309;48.858;8.252;2023-12-14T07:58:33;100057.03;;;7.07;100.00
46583;BME280;32309;48.858;8.252;2023-12-14T08:00:33;100059.56;;;7.09;100.00
46583;BME280;32309;48.858;8.252;2023-12-14T08:02:34;100064.72;;;7.09;100.00
46583;BME280;32309;48.858;8.252;2023-12-14T08:04:34;100063.06;;;7.08;100.00
46583;BME280;32309;48.858;8.252;2023-12-14T08:06:35;100073.28;;;7.09;100.00
46583;BME280;32309;48.858;8.252;2023-12-14T08:08:35;100067.22;;;7.10;100.00
46583;BME280;32309;48.858;8.252;2023-12-14T08:10:37;100071.59;;;7.08;100.00
46583;BME280;32309;48.858;8.252;2023-12-14T08:12:37;100076.69;;;7.10;100.00
46583;BME280;32309;48.858;8.252;2023-12-14T08:14:38;100084.38;;;7.11;100.00
46583;BME280;32309;48.858;8.252;2023-12-14T08:16:43;100091.25;;;7.11;100.00
46583;BME280;32309;48.858;8.252;2023-12-14T08:18:43;100099.75;;;7.13;100.00
46583;BME280;32309;48.858;8.252;2023-12-14T08:20:47;100104.06;;;7.12;100.00
46583;BME280;32309;48.858;8.252;2023-12-14T08:22:48;100116.19;;;7.10;100.00
46583;BME280;32309;48.858;8.252;2023-12-14T08:24:54;100119.53;;;7.12;100.00
46583;BME280;32309;48.858;8.252;2023-12-14T08:26:54;100121.28;;;7.12;100.00
46583;BME280;32309;48.858;8.252;2023-12-14T08:28:54;100126.34;;;7.13;100.00
46583;BME280;32309;48.858;8.252;2023-12-14T08:30:54;100127.22;;;7.14;100.00
46583;BME280;32309;48.858;8.252;2023-12-14T08:32:55;100132.28;;;7.15;100.00
46583;BME280;32309;48.858;8.252;2023-12-14T08:34:56;100134.88;;;7.15;100.00
46583;BME280;32309;48.858;8.252;2023-12-14T08:36:56;100136.50;;;7.16;100.00
46583;BME280;32309;48.858;8.252;2023-12-14T08:38:56;100151.00;;;7.19;100.00
46583;BME280;32309;48.858;8.252;2023-12-14T08:40:59;100147.69;;;7.17;100.00
46583;BME280;32309;48.858;8.252;2023-12-14T08:43:00;100151.94;;;7.18;100.00
46583;BME280;32309;48.858;8.252;2023-12-14T08:45:00;100156.94;;;7.21;100.00
46583;BME280;32309;48.858;8.252;2023-12-14T08:47:01;100168.06;;;7.22;100.00
46583;BME280;32309;48.858;8.252;2023-12-14T08:49:03;100168.94;;;7.22;100.00
46583;BME280;32309;48.858;8.252;2023-12-14T08:51:06;100172.22;;;7.26;100.00
46583;BME280;32309;48.858;8.252;2023-12-14T08:53:06;100174.78;;;7.26;100.00
46583;BME280;32309;48.858;8.252;2023-12-14T08:55:08;100181.53;;;7.28;100.00
46583;BME280;32309;48.858;8.252;2023-12-14T08:57:08;100186.63;;;7.30;100.00
46583;BME280;32309;48.858;8.252;2023-12-14T08:59:09;100189.97;;;7.32;100.00
46583;BME280;32309;48.858;8.252;2023-12-14T09:01:09;100194.22;;;7.33;100.00
46583;BME280;32309;48.858;8.252;2023-12-14T09:03:10;100196.81;;;7.33;100.00
46583;BME280;32309;48.858;8.252;2023-12-14T09:05:11;100200.16;;;7.35;100.00
46583;BME280;32309;48.858;8.252;2023-12-14T09:07:12;100206.06;;;7.37;100.00
46583;BME280;32309;48.858;8.252;2023-12-14T09:09:15;100207.75;;;7.38;100.00
46583;BME280;32309;48.858;8.252;2023-12-14T09:11:16;100210.25;;;7.40;100.00
46583;BME280;32309;48.858;8.252;2023-12-14T09:13:16;100212.03;;;7.38;100.00
46583;BME280;32309;48.858;8.252;2023-12-14T09:15:20;100211.06;;;7.40;100.00
46583;BME280;32309;48.858;8.252;2023-12-14T09:17:20;100222.09;;;7.44;100.00
46583;BME280;32309;48.858;8.252;2023-12-14T09:19:20;100219.41;;;7.47;100.00
46583;BME280;32309;48.858;8.252;2023-12-14T09:21:21;100221.03;;;7.48;100.00
46583;BME280;32309;48.858;8.252;2023-12-14T09:23:21;100221.03;;;7.48;100.00
46583;BME280;32309;48.858;8.252;2023-12-14T09:25:21;100226.97;;;7.50;100.00
46583;BME280;32309;48.858;8.252;2023-12-14T09:27:21;100230.31;;;7.52;100.00
46583;BME280;32309;48.858;8.252;2023-12-14T09:29:21;100231.09;;;7.54;100.00
46583;BME280;32309;48.858;8.252;2023-12-14T09:31:22;100233.47;;;7.59;100.00
46583;BME280;32309;48.858;8.252;2023-12-14T09:33:22;100244.53;;;7.61;100.00
46583;BME280;32309;48.858;8.252;2023-12-14T09:35:22;100251.22;;;7.65;100.00
46583;BME280;32309;48.858;8.252;2023-12-14T09:37:23;100251.16;;;7.66;100.00
46583;BME280;32309;48.858;8.252;2023-12-14T09:39:23;100260.56;;;7.68;100.00
46583;BME280;32309;48.858;8.252;2023-12-14T09:41:24;100264.75;;;7.70;100.00
46583;BME280;32309;48.858;8.252;2023-12-14T09:43:24;100277.59;;;7.72;100.00
46583;BME280;32309;48.858;8.252;2023-12-14T09:45:27;100284.50;;;7.71;100.00
46583;BME280;32309;48.858;8.252;2023-12-14T09:47:29;100287.16;;;7.70;100.00
46583;BME280;32309;48.858;8.252;2023-12-14T09:49:30;100292.31;;;7.70;100.00
46583;BME280;32309;48.858;8.252;2023-12-14T09:51:30;100300.16;;;7.66;100.00
46583;BME280;32309;48.858;8.252;2023-12-14T09:53:33;100298.53;;;7.65;100.00
46583;BME280;32309;48.858;8.252;2023-12-14T09:55:34;100304.56;;;7.64;100.00
46583;BME280;32309;48.858;8.252;2023-12-14T09:57:35;100302.97;;;7.62;100.00
46583;BME280;32309;48.858;8.252;2023-12-14T09:59:35;100307.22;;;7.63;100.00
46583;BME280;32309;48.858;8.252;2023-12-14T10:01:35;100309.81;;;7.63;100.00
46583;BME280;32309;48.858;8.252;2023-12-14T10:03:35;100307.22;;;7.63;100.00
46583;BME280;32309;48.858;8.252;2023-12-14T10:05:36;100311.53;;;7.62;100.00
46583;BME280;32309;48.858;8.252;2023-12-14T10:07:42;100311.41;;;7.65;100.00
46583;BME280;32309;48.858;8.252;2023-12-14T10:09:44;100310.44;;;7.68;100.00
46583;BME280;32309;48.858;8.252;2023-12-14T10:11:44;100306.03;;;7.70;100.00
46583;BME280;32309;48.858;8.252;2023-12-14T10:13:45;100305.97;;;7.72;100.00
46583;BME280;32309;48.858;8.252;2023-12-14T10:15:48;100312.72;;;7.74;100.00
46583;BME280;32309;48.858;8.252;2023-12-14T10:20:21;100319.50;;;7.77;100.00
46583;BME280;32309;48.858;8.252;2023-12-14T10:22:25;100322.94;;;7.77;100.00
46583;BME280;32309;48.858;8.252;2023-12-14T10:24:28;100328.03;;;7.79;100.00
46583;BME280;32309;48.858;8.252;2023-12-14T10:26:40;100329.63;;;7.81;100.00
46583;BME280;32309;48.858;8.252;2023-12-14T10:29:15;100333.09;;;7.80;100.00
46583;BME280;32309;48.858;8.252;2023-12-14T10:31:16;100332.94;;;7.83;100.00
46583;BME280;32309;48.858;8.252;2023-12-14T10:33:21;100330.38;;;7.83;100.00
46583;BME280;32309;48.858;8.252;2023-12-14T10:35:21;100334.72;;;7.83;100.00
46583;BME280;32309;48.858;8.252;2023-12-14T10:37:30;100336.31;;;7.86;100.00
46583;BME280;32309;48.858;8.252;2023-12-14T10:39:33;100329.47;;;7.85;100.00
46583;BME280;32309;48.858;8.252;2023-12-14T10:41:56;100334.47;;;7.88;100.00
46583;BME280;32309;48.858;8.252;2023-12-14T10:43:57;100335.34;;;7.88;100.00